sensor_id;sensor_type;location;lat;lon;timestamp;P1;durP1;ratioP1;P2;durP2;ratioP2
68921;SDS011;55959;51.244;5.724;2022-09-12T00:01:04;7.27;;;6.37;;
68921;SDS011;55959;51.244;5.724;2022-09-12T00:03:37;7.13;;;6.03;;
68921;SDS011;55959;51.244;5.724;2022-09-12T00:06:11;5.73;;;5.33;;
68921;SDS011;55959;51.244;5.724;2022-09-12T00:08:44;6.50;;;5.90;;
68921;SDS011;55959;51.244;5.724;2022-09-12T00:11:10;6.07;;;5.57;;
68921;SDS011;55959;51.244;5.724;2022-09-12T00:13:37;6.27;;;5.70;;
68921;SDS011;55959;51.244;5.724;2022-09-12T00:16:05;6.90;;;6.27;;
68921;SDS011;55959;51.244;5.724;2022-09-12T00:18:31;7.07;;;6.47;;
68921;SDS011;55959;51.244;5.724;2022-09-12T00:21:01;6.67;;;6.07;;
68921;SDS011;55959;51.244;5.724;2022-09-12T00:23:29;7.30;;;6.60;;
68921;SDS011;55959;51.244;5.724;2022-09-12T00:25:56;9.73;;;7.13;;
68921;SDS011;55959;51.244;5.724;2022-09-12T00:28:21;7.70;;;6.90;;
68921;SDS011;55959;51.244;5.724;2022-09-12T00:30:47;7.43;;;6.80;;
68921;SDS011;55959;51.244;5.724;2022-09-12T00:33:16;7.70;;;7.00;;
68921;SDS011;55959;51.244;5.724;2022-09-12T00:35:47;8.10;;;7.30;;
68921;SDS011;55959;51.244;5.724;2022-09-12T00:38:17;7.80;;;7.00;;
68921;SDS011;55959;51.244;5.724;2022-09-12T00:40:43;7.87;;;7.17;;
68921;SDS011;55959;51.244;5.724;2022-09-12T00:43:13;8.67;;;7.20;;
68921;SDS011;55959;51.244;5.724;2022-09-12T00:46:00;7.37;;;6.63;;
68921;SDS011;55959;51.244;5.724;2022-09-12T00:48:35;8.10;;;7.33;;
68921;SDS011;55959;51.244;5.724;2022-09-12T00:51:08;7.97;;;7.17;;
68921;SDS011;55959;51.244;5.724;2022-09-12T00:53:35;8.20;;;7.40;;
68921;SDS011;55959;51.244;5.724;2022-09-12T00:56:02;7.77;;;6.97;;
68921;SDS011;55959;51.244;5.724;2022-09-12T00:58:29;7.87;;;7.27;;
68921;SDS011;55959;51.244;5.724;2022-09-12T01:01:01;7.50;;;6.83;;
68921;SDS011;55959;51.244;5.724;2022-09-12T01:03:27;6.73;;;6.17;;
68921;SDS011;55959;51.244;5.724;2022-09-12T01:08:45;7.90;;;7.10;;
68921;SDS011;55959;51.244;5.724;2022-09-12T01:11:12;7.07;;;6.37;;
68921;SDS011;55959;51.244;5.724;2022-09-12T01:13:39;7.23;;;6.47;;
68921;SDS011;55959;51.244;5.724;2022-09-12T01:16:06;7.87;;;7.07;;
68921;SDS011;55959;51.244;5.724;2022-09-12T01:21:21;8.00;;;7.30;;
68921;SDS011;55959;51.244;5.724;2022-09-12T01:24:33;7.40;;;6.80;;
68921;SDS011;55959;51.244;5.724;2022-09-12T01:36:29;7.70;;;6.90;;
68921;SDS011;55959;51.244;5.724;2022-09-12T01:39:55;8.00;;;7.30;;
68921;SDS011;55959;51.244;5.724;2022-09-12T01:45:27;8.07;;;7.37;;
68921;SDS011;55959;51.244;5.724;2022-09-12T01:48:15;8.57;;;7.77;;
68921;SDS011;55959;51.244;5.724;2022-09-12T01:50:57;9.50;;;7.47;;
68921;SDS011;55959;51.244;5.724;2022-09-12T01:53:40;8.03;;;7.30;;
68921;SDS011;55959;51.244;5.724;2022-09-12T01:56:10;9.10;;;8.20;;
68921;SDS011;55959;51.244;5.724;2022-09-12T01:59:07;8.33;;;7.53;;
68921;SDS011;55959;51.244;5.724;2022-09-12T02:02:41;8.60;;;7.80;;
68921;SDS011;55959;51.244;5.724;2022-09-12T02:07:52;9.17;;;8.27;;
68921;SDS011;55959;51.244;5.724;2022-09-12T02:10:28;8.23;;;7.50;;
68921;SDS011;55959;51.244;5.724;2022-09-12T02:13:00;9.07;;;8.17;;
68921;SDS011;55959;51.244;5.724;2022-09-12T02:15:48;10.13;;;9.03;;
68921;SDS011;55959;51.244;5.724;2022-09-12T02:18:18;11.80;;;10.63;;
68921;SDS011;55959;51.244;5.724;2022-09-12T02:20:45;10.43;;;9.37;;
68921;SDS011;55959;51.244;5.724;2022-09-12T02:23:14;11.27;;;9.63;;
68921;SDS011;55959;51.244;5.724;2022-09-12T02:25:47;9.43;;;8.50;;
68921;SDS011;55959;51.244;5.724;2022-09-12T02:28:29;9.83;;;8.60;;
68921;SDS011;55959;51.244;5.724;2022-09-12T02:31:01;8.13;;;7.33;;
68921;SDS011;55959;51.244;5.724;2022-09-12T02:33:47;8.70;;;7.90;;
68921;SDS011;55959;51.244;5.724;2022-09-12T02:39:14;8.57;;;7.73;;
68921;SDS011;55959;51.244;5.724;2022-09-12T02:41:44;8.87;;;8.07;;
68921;SDS011;55959;51.244;5.724;2022-09-12T02:44:12;9.83;;;8.67;;
68921;SDS011;55959;51.244;5.724;2022-09-12T02:46:39;8.60;;;7.80;;
68921;SDS011;55959;51.244;5.724;2022-09-12T02:49:12;10.27;;;8.07;;
68921;SDS011;55959;51.244;5.724;2022-09-12T02:51:39;9.37;;;8.10;;
68921;SDS011;55959;51.244;5.724;2022-09-12T02:54:05;8.87;;;7.97;;
68921;SDS011;55959;51.244;5.724;2022-09-12T02:56:33;9.13;;;8.20;;
68921;SDS011;55959;51.244;5.724;2022-09-12T02:59:01;8.90;;;7.80;;
68921;SDS011;55959;51.244;5.724;2022-09-12T03:04:40;8.97;;;8.10;;
68921;SDS011;55959;51.244;5.724;2022-09-12T03:07:29;8.70;;;7.90;;
68921;SDS011;55959;51.244;5.724;2022-09-12T03:16:34;7.93;;;7.23;;
68921;SDS011;55959;51.244;5.724;2022-09-12T03:19:41;8.60;;;7.23;;
68921;SDS011;55959;51.244;5.724;2022-09-12T03:22:23;7.37;;;6.67;;
68921;SDS011;55959;51.244;5.724;2022-09-12T03:25:09;8.70;;;7.60;;
68921;SDS011;55959;51.244;5.724;2022-09-12T03:27:42;7.90;;;7.10;;
68921;SDS011;55959;51.244;5.724;2022-09-12T03:30:18;7.90;;;7.10;;
68921;SDS011;55959;51.244;5.724;2022-09-12T03:32:48;7.23;;;6.53;;
68921;SDS011;55959;51.244;5.724;2022-09-12T03:35:17;11.10;;;7.77;;
68921;SDS011;55959;51.244;5.724;2022-09-12T03:37:46;9.33;;;7.43;;
68921;SDS011;55959;51.244;5.724;2022-09-12T03:40:13;8.80;;;8.00;;
68921;SDS011;55959;51.244;5.724;2022-09-12T03:42:39;8.30;;;7.27;;
68921;SDS011;55959;51.244;5.724;2022-09-12T03:45:06;9.17;;;8.27;;
68921;SDS011;55959;51.244;5.724;2022-09-12T03:47:33;8.90;;;8.00;;
68921;SDS011;55959;51.244;5.724;2022-09-12T03:49:59;7.57;;;6.87;;
68921;SDS011;55959;51.244;5.724;2022-09-12T03:52:27;8.30;;;7.50;;
68921;SDS011;55959;51.244;5.724;2022-09-12T03:54:52;8.50;;;7.70;;
68921;SDS011;55959;51.244;5.724;2022-09-12T03:57:18;8.93;;;8.13;;
68921;SDS011;55959;51.244;5.724;2022-09-12T03:59:44;9.33;;;8.43;;
68921;SDS011;55959;51.244;5.724;2022-09-12T04:02:10;8.67;;;7.83;;
68921;SDS011;55959;51.244;5.724;2022-09-12T04:04:37;10.27;;;8.57;;
68921;SDS011;55959;51.244;5.724;2022-09-12T04:07:05;8.00;;;7.30;;
68921;SDS011;55959;51.244;5.724;2022-09-12T04:09:31;9.10;;;7.70;;
68921;SDS011;55959;51.244;5.724;2022-09-12T04:11:57;8.43;;;7.63;;
68921;SDS011;55959;51.244;5.724;2022-09-12T04:14:23;8.17;;;7.37;;
68921;SDS011;55959;51.244;5.724;2022-09-12T04:16:48;8.23;;;7.33;;
68921;SDS011;55959;51.244;5.724;2022-09-12T04:19:14;8.57;;;7.33;;
68921;SDS011;55959;51.244;5.724;2022-09-12T04:21:40;7.97;;;6.90;;
68921;SDS011;55959;51.244;5.724;2022-09-12T04:24:05;7.90;;;7.10;;
68921;SDS011;55959;51.244;5.724;2022-09-12T04:26:31;8.53;;;7.43;;
68921;SDS011;55959;51.244;5.724;2022-09-12T04:28:57;8.07;;;7.27;;
68921;SDS011;55959;51.244;5.724;2022-09-12T04:31:23;9.23;;;7.90;;
68921;SDS011;55959;51.244;5.724;2022-09-12T04:33:53;8.03;;;7.23;;
68921;SDS011;55959;51.244;5.724;2022-09-12T04:36:21;8.50;;;7.70;;
68921;SDS011;55959;51.244;5.724;2022-09-12T04:38:48;8.37;;;7.57;;
68921;SDS011;55959;51.244;5.724;2022-09-12T04:41:25;9.00;;;8.10;;
68921;SDS011;55959;51.244;5.724;2022-09-12T04:43:55;8.93;;;8.03;;
68921;SDS011;55959;51.244;5.724;2022-09-12T04:46:26;8.30;;;7.50;;
68921;SDS011;55959;51.244;5.724;2022-09-12T04:48:58;9.23;;;8.33;;
68921;SDS011;55959;51.244;5.724;2022-09-12T04:51:25;8.90;;;8.00;;
68921;SDS011;55959;51.244;5.724;2022-09-12T04:53:55;8.57;;;7.77;;
68921;SDS011;55959;51.244;5.724;2022-09-12T04:56:28;9.13;;;8.23;;
68921;SDS011;55959;51.244;5.724;2022-09-12T04:58:58;9.50;;;8.60;;
68921;SDS011;55959;51.244;5.724;2022-09-12T05:01:25;9.37;;;7.93;;
68921;SDS011;55959;51.244;5.724;2022-09-12T05:03:53;8.97;;;8.07;;
68921;SDS011;55959;51.244;5.724;2022-09-12T05:06:25;8.50;;;7.37;;
68921;SDS011;55959;51.244;5.724;2022-09-12T05:08:55;8.63;;;7.67;;
68921;SDS011;55959;51.244;5.724;2022-09-12T05:11:24;10.80;;;8.03;;
68921;SDS011;55959;51.244;5.724;2022-09-12T05:13:52;8.60;;;7.70;;
68921;SDS011;55959;51.244;5.724;2022-09-12T05:16:19;7.80;;;7.00;;
68921;SDS011;55959;51.244;5.724;2022-09-12T05:18:45;7.60;;;6.90;;
68921;SDS011;55959;51.244;5.724;2022-09-12T05:21:14;7.93;;;7.13;;
68921;SDS011;55959;51.244;5.724;2022-09-12T05:23:43;8.10;;;7.30;;
68921;SDS011;55959;51.244;5.724;2022-09-12T05:26:11;7.93;;;7.13;;
68921;SDS011;55959;51.244;5.724;2022-09-12T05:28:39;8.03;;;7.23;;
68921;SDS011;55959;51.244;5.724;2022-09-12T05:33:49;9.20;;;8.30;;
68921;SDS011;55959;51.244;5.724;2022-09-12T05:36:18;8.13;;;7.33;;
68921;SDS011;55959;51.244;5.724;2022-09-12T05:38:49;8.80;;;7.90;;
68921;SDS011;55959;51.244;5.724;2022-09-12T05:41:17;7.60;;;6.80;;
68921;SDS011;55959;51.244;5.724;2022-09-12T05:43:45;8.87;;;7.87;;
68921;SDS011;55959;51.244;5.724;2022-09-12T05:46:15;9.27;;;8.37;;
68921;SDS011;55959;51.244;5.724;2022-09-12T05:48:44;10.50;;;9.50;;
68921;SDS011;55959;51.244;5.724;2022-09-12T05:51:15;10.67;;;9.67;;
68921;SDS011;55959;51.244;5.724;2022-09-12T05:53:46;11.43;;;10.10;;
68921;SDS011;55959;51.244;5.724;2022-09-12T05:56:17;9.50;;;8.17;;
68921;SDS011;55959;51.244;5.724;2022-09-12T05:58:49;9.63;;;8.70;;
68921;SDS011;55959;51.244;5.724;2022-09-12T06:01:29;11.27;;;10.17;;
68921;SDS011;55959;51.244;5.724;2022-09-12T06:03:58;11.13;;;10.03;;
68921;SDS011;55959;51.244;5.724;2022-09-12T06:06:26;11.43;;;10.10;;
68921;SDS011;55959;51.244;5.724;2022-09-12T06:09:00;13.00;;;11.70;;
68921;SDS011;55959;51.244;5.724;2022-09-12T06:11:29;12.77;;;10.77;;
68921;SDS011;55959;51.244;5.724;2022-09-12T06:13:57;10.90;;;9.80;;
68921;SDS011;55959;51.244;5.724;2022-09-12T06:16:28;10.33;;;9.17;;
68921;SDS011;55959;51.244;5.724;2022-09-12T06:18:57;13.13;;;11.67;;
68921;SDS011;55959;51.244;5.724;2022-09-12T06:21:26;10.97;;;9.93;;
68921;SDS011;55959;51.244;5.724;2022-09-12T06:23:53;12.17;;;10.97;;
68921;SDS011;55959;51.244;5.724;2022-09-12T06:26:19;12.07;;;10.80;;
68921;SDS011;55959;51.244;5.724;2022-09-12T06:28:47;14.97;;;13.10;;
68921;SDS011;55959;51.244;5.724;2022-09-12T06:31:15;13.70;;;12.30;;
68921;SDS011;55959;51.244;5.724;2022-09-12T06:33:45;13.30;;;11.90;;
68921;SDS011;55959;51.244;5.724;2022-09-12T06:36:15;11.93;;;10.83;;
68921;SDS011;55959;51.244;5.724;2022-09-12T06:38:46;13.50;;;12.13;;
68921;SDS011;55959;51.244;5.724;2022-09-12T06:41:13;13.27;;;11.80;;
68921;SDS011;55959;51.244;5.724;2022-09-12T06:43:41;13.93;;;12.57;;
68921;SDS011;55959;51.244;5.724;2022-09-12T06:46:07;14.07;;;12.67;;
68921;SDS011;55959;51.244;5.724;2022-09-12T06:48:35;14.93;;;12.33;;
68921;SDS011;55959;51.244;5.724;2022-09-12T06:51:05;14.13;;;12.73;;
68921;SDS011;55959;51.244;5.724;2022-09-12T06:53:34;12.90;;;11.70;;
68921;SDS011;55959;51.244;5.724;2022-09-12T06:56:04;14.00;;;12.50;;
68921;SDS011;55959;51.244;5.724;2022-09-12T06:58:33;15.03;;;13.50;;
68921;SDS011;55959;51.244;5.724;2022-09-12T07:01:00;14.07;;;12.67;;
68921;SDS011;55959;51.244;5.724;2022-09-12T07:04:06;14.83;;;13.37;;
68921;SDS011;55959;51.244;5.724;2022-09-12T07:06:36;15.83;;;14.17;;
68921;SDS011;55959;51.244;5.724;2022-09-12T07:09:06;13.37;;;11.80;;
68921;SDS011;55959;51.244;5.724;2022-09-12T07:11:35;13.17;;;11.87;;
68921;SDS011;55959;51.244;5.724;2022-09-12T07:14:04;15.90;;;14.30;;
68921;SDS011;55959;51.244;5.724;2022-09-12T07:16:31;13.00;;;11.70;;
68921;SDS011;55959;51.244;5.724;2022-09-12T07:19:00;16.40;;;14.60;;
68921;SDS011;55959;51.244;5.724;2022-09-12T07:21:28;12.30;;;11.10;;
68921;SDS011;55959;51.244;5.724;2022-09-12T07:23:55;15.03;;;12.80;;
68921;SDS011;55959;51.244;5.724;2022-09-12T07:26:25;14.33;;;13.03;;
68921;SDS011;55959;51.244;5.724;2022-09-12T07:28:53;14.00;;;12.53;;
68921;SDS011;55959;51.244;5.724;2022-09-12T07:31:21;13.20;;;11.90;;
68921;SDS011;55959;51.244;5.724;2022-09-12T07:33:49;14.87;;;13.33;;
68921;SDS011;55959;51.244;5.724;2022-09-12T07:36:17;15.83;;;14.23;;
68921;SDS011;55959;51.244;5.724;2022-09-12T07:38:44;13.73;;;12.33;;
68921;SDS011;55959;51.244;5.724;2022-09-12T07:41:11;16.47;;;14.73;;
68921;SDS011;55959;51.244;5.724;2022-09-12T07:43:45;15.40;;;13.90;;
68921;SDS011;55959;51.244;5.724;2022-09-12T07:46:12;16.93;;;15.13;;
68921;SDS011;55959;51.244;5.724;2022-09-12T07:48:39;15.77;;;14.27;;
68921;SDS011;55959;51.244;5.724;2022-09-12T07:51:06;16.40;;;14.80;;
68921;SDS011;55959;51.244;5.724;2022-09-12T07:53:38;14.60;;;13.20;;
68921;SDS011;55959;51.244;5.724;2022-09-12T07:56:05;14.83;;;13.23;;
68921;SDS011;55959;51.244;5.724;2022-09-12T07:58:34;18.23;;;15.67;;
68921;SDS011;55959;51.244;5.724;2022-09-12T08:01:05;19.00;;;17.00;;
68921;SDS011;55959;51.244;5.724;2022-09-12T08:03:47;17.60;;;15.90;;
68921;SDS011;55959;51.244;5.724;2022-09-12T08:08:44;14.57;;;13.20;;
68921;SDS011;55959;51.244;5.724;2022-09-12T08:11:12;18.13;;;16.33;;
68921;SDS011;55959;51.244;5.724;2022-09-12T08:13:41;16.33;;;14.83;;
68921;SDS011;55959;51.244;5.724;2022-09-12T08:16:18;17.90;;;16.00;;
68921;SDS011;55959;51.244;5.724;2022-09-12T08:18:45;17.03;;;15.43;;
68921;SDS011;55959;51.244;5.724;2022-09-12T08:21:14;16.00;;;14.40;;
68921;SDS011;55959;51.244;5.724;2022-09-12T08:23:43;14.53;;;13.13;;
68921;SDS011;55959;51.244;5.724;2022-09-12T08:26:10;17.23;;;15.50;;
68921;SDS011;55959;51.244;5.724;2022-09-12T08:28:37;16.50;;;14.90;;
68921;SDS011;55959;51.244;5.724;2022-09-12T08:31:09;18.53;;;16.63;;
68921;SDS011;55959;51.244;5.724;2022-09-12T08:33:38;20.47;;;18.40;;
68921;SDS011;55959;51.244;5.724;2022-09-12T08:36:12;18.10;;;16.30;;
68921;SDS011;55959;51.244;5.724;2022-09-12T08:38:41;15.73;;;14.13;;
68921;SDS011;55959;51.244;5.724;2022-09-12T08:49:59;18.83;;;16.90;;
68921;SDS011;55959;51.244;5.724;2022-09-12T08:52:51;13.90;;;12.50;;
68921;SDS011;55959;51.244;5.724;2022-09-12T08:55:49;14.95;;;13.52;;
68921;SDS011;55959;51.244;5.724;2022-09-12T08:58:22;15.97;;;14.40;;
68921;SDS011;55959;51.244;5.724;2022-09-12T09:04:00;14.98;;;13.43;;
68921;SDS011;55959;51.244;5.724;2022-09-12T09:10:02;14.02;;;12.63;;
68921;SDS011;55959;51.244;5.724;2022-09-12T09:12:53;12.35;;;11.25;;
68921;SDS011;55959;51.244;5.724;2022-09-12T09:16:13;12.93;;;11.73;;
68921;SDS011;55959;51.244;5.724;2022-09-12T09:18:49;12.27;;;11.10;;
68921;SDS011;55959;51.244;5.724;2022-09-12T09:21:22;11.18;;;10.07;;
68921;SDS011;55959;51.244;5.724;2022-09-12T09:24:05;11.55;;;10.45;;
68921;SDS011;55959;51.244;5.724;2022-09-12T09:29:17;12.05;;;10.93;;
68921;SDS011;55959;51.244;5.724;2022-09-12T09:31:46;12.80;;;11.52;;
68921;SDS011;55959;51.244;5.724;2022-09-12T09:34:20;12.35;;;11.15;;
68921;SDS011;55959;51.244;5.724;2022-09-12T09:45:26;14.43;;;12.65;;
68921;SDS011;55959;51.244;5.724;2022-09-12T09:48:27;11.95;;;10.75;;
68921;SDS011;55959;51.244;5.724;2022-09-12T09:51:02;13.07;;;11.98;;
68921;SDS011;55959;51.244;5.724;2022-09-12T09:53:33;11.95;;;10.75;;
68921;SDS011;55959;51.244;5.724;2022-09-12T10:01:48;11.18;;;10.18;;
68921;SDS011;55959;51.244;5.724;2022-09-12T10:04:38;11.82;;;10.63;;
68921;SDS011;55959;51.244;5.724;2022-09-12T10:07:06;9.77;;;8.80;;
68921;SDS011;55959;51.244;5.724;2022-09-12T10:09:44;8.98;;;8.07;;
68921;SDS011;55959;51.244;5.724;2022-09-12T10:12:31;9.93;;;9.02;;
68921;SDS011;55959;51.244;5.724;2022-09-12T10:14:57;8.55;;;7.40;;
68921;SDS011;55959;51.244;5.724;2022-09-12T10:17:40;8.20;;;7.43;;
68921;SDS011;55959;51.244;5.724;2022-09-12T10:23:01;10.98;;;9.90;;
68921;SDS011;55959;51.244;5.724;2022-09-12T10:25:51;8.38;;;7.45;;
68921;SDS011;55959;51.244;5.724;2022-09-12T10:28:20;7.30;;;6.60;;
68921;SDS011;55959;51.244;5.724;2022-09-12T10:30:51;5.97;;;5.40;;
68921;SDS011;55959;51.244;5.724;2022-09-12T10:33:19;7.75;;;7.05;;
68921;SDS011;55959;51.244;5.724;2022-09-12T10:35:49;5.72;;;5.22;;
68921;SDS011;55959;51.244;5.724;2022-09-12T10:38:27;4.90;;;4.50;;
68921;SDS011;55959;51.244;5.724;2022-09-12T10:40:57;5.90;;;5.15;;
68921;SDS011;55959;51.244;5.724;2022-09-12T10:45:58;5.25;;;4.82;;
68921;SDS011;55959;51.244;5.724;2022-09-12T10:48:44;4.03;;;3.63;;
68921;SDS011;55959;51.244;5.724;2022-09-12T10:51:14;6.80;;;4.85;;
68921;SDS011;55959;51.244;5.724;2022-09-12T10:56:21;4.60;;;4.20;;
68921;SDS011;55959;51.244;5.724;2022-09-12T10:59:37;4.25;;;3.85;;
68921;SDS011;55959;51.244;5.724;2022-09-12T11:02:42;7.20;;;4.10;;
68921;SDS011;55959;51.244;5.724;2022-09-12T11:08:45;7.13;;;4.43;;
68921;SDS011;55959;51.244;5.724;2022-09-12T11:28:56;3.92;;;3.63;;
68921;SDS011;55959;51.244;5.724;2022-09-12T11:34:55;3.00;;;2.20;;
68921;SDS011;55959;51.244;5.724;2022-09-12T11:41:14;4.45;;;3.47;;
68921;SDS011;55959;51.244;5.724;2022-09-12T11:44:08;4.80;;;3.53;;
68921;SDS011;55959;51.244;5.724;2022-09-12T11:46:36;3.55;;;2.80;;
68921;SDS011;55959;51.244;5.724;2022-09-12T11:51:56;3.35;;;2.97;;
68921;SDS011;55959;51.244;5.724;2022-09-12T11:54:38;5.25;;;4.65;;
68921;SDS011;55959;51.244;5.724;2022-09-12T11:57:20;4.15;;;3.67;;
68921;SDS011;55959;51.244;5.724;2022-09-12T12:06:04;3.53;;;3.22;;
68921;SDS011;55959;51.244;5.724;2022-09-12T12:08:38;4.63;;;3.17;;
68921;SDS011;55959;51.244;5.724;2022-09-12T12:11:23;3.95;;;3.55;;
68921;SDS011;55959;51.244;5.724;2022-09-12T12:17:16;3.78;;;3.42;;
68921;SDS011;55959;51.244;5.724;2022-09-12T12:19:45;3.95;;;2.63;;
68921;SDS011;55959;51.244;5.724;2022-09-12T12:22:22;2.70;;;2.50;;
68921;SDS011;55959;51.244;5.724;2022-09-12T12:24:53;3.03;;;2.78;;
68921;SDS011;55959;51.244;5.724;2022-09-12T12:27:56;5.50;;;3.00;;
68921;SDS011;55959;51.244;5.724;2022-09-12T12:35:43;3.60;;;3.30;;
68921;SDS011;55959;51.244;5.724;2022-09-12T12:38:27;3.08;;;2.75;;
68921;SDS011;55959;51.244;5.724;2022-09-12T12:43:45;3.65;;;2.97;;
68921;SDS011;55959;51.244;5.724;2022-09-12T12:46:13;3.42;;;3.13;;
68921;SDS011;55959;51.244;5.724;2022-09-12T12:54:02;3.67;;;3.15;;
68921;SDS011;55959;51.244;5.724;2022-09-12T12:56:36;2.40;;;2.20;;
68921;SDS011;55959;51.244;5.724;2022-09-12T12:59:15;2.80;;;2.50;;
68921;SDS011;55959;51.244;5.724;2022-09-12T13:01:46;2.63;;;2.42;;
68921;SDS011;55959;51.244;5.724;2022-09-12T13:04:20;2.47;;;2.30;;
68921;SDS011;55959;51.244;5.724;2022-09-12T13:09:32;2.85;;;2.65;;
68921;SDS011;55959;51.244;5.724;2022-09-12T13:12:06;3.25;;;2.13;;
68921;SDS011;55959;51.244;5.724;2022-09-12T13:14:46;4.32;;;2.28;;
68921;SDS011;55959;51.244;5.724;2022-09-12T13:19:52;3.28;;;2.10;;
68921;SDS011;55959;51.244;5.724;2022-09-12T13:22:39;2.70;;;2.50;;
68921;SDS011;55959;51.244;5.724;2022-09-12T13:25:18;2.20;;;2.00;;
68921;SDS011;55959;51.244;5.724;2022-09-12T13:30:47;2.75;;;2.15;;
68921;SDS011;55959;51.244;5.724;2022-09-12T13:33:35;2.55;;;2.30;;
68921;SDS011;55959;51.244;5.724;2022-09-12T13:44:22;2.88;;;2.42;;
68921;SDS011;55959;51.244;5.724;2022-09-12T13:46:50;2.75;;;2.42;;
68921;SDS011;55959;51.244;5.724;2022-09-12T13:49:20;3.03;;;2.38;;
68921;SDS011;55959;51.244;5.724;2022-09-12T13:52:05;2.20;;;2.00;;
68921;SDS011;55959;51.244;5.724;2022-09-12T13:54:38;2.35;;;2.15;;
68921;SDS011;55959;51.244;5.724;2022-09-12T13:57:04;2.10;;;1.90;;
68921;SDS011;55959;51.244;5.724;2022-09-12T13:59:37;2.03;;;1.80;;
68921;SDS011;55959;51.244;5.724;2022-09-12T14:02:16;1.95;;;1.80;;
68921;SDS011;55959;51.244;5.724;2022-09-12T14:04:46;4.05;;;2.17;;
68921;SDS011;55959;51.244;5.724;2022-09-12T14:07:33;1.92;;;1.77;;
68921;SDS011;55959;51.244;5.724;2022-09-12T14:10:36;2.15;;;2.00;;
68921;SDS011;55959;51.244;5.724;2022-09-12T14:13:09;1.77;;;1.48;;
68921;SDS011;55959;51.244;5.724;2022-09-12T14:15:40;2.00;;;1.80;;
68921;SDS011;55959;51.244;5.724;2022-09-12T14:18:20;1.88;;;1.77;;
68921;SDS011;55959;51.244;5.724;2022-09-12T14:20:52;2.60;;;1.88;;
68921;SDS011;55959;51.244;5.724;2022-09-12T14:23:26;2.10;;;1.90;;
68921;SDS011;55959;51.244;5.724;2022-09-12T14:25:55;1.60;;;1.50;;
68921;SDS011;55959;51.244;5.724;2022-09-12T14:28:23;1.77;;;1.67;;
68921;SDS011;55959;51.244;5.724;2022-09-12T14:31:00;2.35;;;1.70;;
68921;SDS011;55959;51.244;5.724;2022-09-12T14:34:14;1.80;;;1.70;;
68921;SDS011;55959;51.244;5.724;2022-09-12T14:39:21;2.00;;;1.70;;
68921;SDS011;55959;51.244;5.724;2022-09-12T14:41:49;2.30;;;2.10;;
68921;SDS011;55959;51.244;5.724;2022-09-12T14:44:25;2.22;;;2.03;;
68921;SDS011;55959;51.244;5.724;2022-09-12T14:46:53;2.63;;;1.50;;
68921;SDS011;55959;51.244;5.724;2022-09-12T14:49:38;1.73;;;1.60;;
68921;SDS011;55959;51.244;5.724;2022-09-12T14:52:05;3.20;;;1.90;;
68921;SDS011;55959;51.244;5.724;2022-09-12T14:55:41;1.80;;;1.70;;
68921;SDS011;55959;51.244;5.724;2022-09-12T14:57:42;2.20;;;1.73;;
68921;SDS011;55959;51.244;5.724;2022-09-12T15:02:38;2.47;;;1.80;;
68921;SDS011;55959;51.244;5.724;2022-09-12T15:15:33;1.63;;;1.52;;
68921;SDS011;55959;51.244;5.724;2022-09-12T15:18:01;1.67;;;1.27;;
68921;SDS011;55959;51.244;5.724;2022-09-12T15:20:27;1.60;;;1.50;;
68921;SDS011;55959;51.244;5.724;2022-09-12T15:22:53;2.10;;;1.90;;
68921;SDS011;55959;51.244;5.724;2022-09-12T15:25:20;2.40;;;2.20;;
68921;SDS011;55959;51.244;5.724;2022-09-12T15:27:46;1.55;;;1.45;;
68921;SDS011;55959;51.244;5.724;2022-09-12T15:30:13;2.13;;;1.73;;
68921;SDS011;55959;51.244;5.724;2022-09-12T15:32:39;1.83;;;1.73;;
68921;SDS011;55959;51.244;5.724;2022-09-12T15:35:15;2.05;;;1.70;;
68921;SDS011;55959;51.244;5.724;2022-09-12T15:37:42;1.60;;;1.50;;
68921;SDS011;55959;51.244;5.724;2022-09-12T15:40:10;1.80;;;1.70;;
68921;SDS011;55959;51.244;5.724;2022-09-12T15:42:37;1.95;;;1.50;;
68921;SDS011;55959;51.244;5.724;2022-09-12T15:47:45;1.73;;;1.63;;
68921;SDS011;55959;51.244;5.724;2022-09-12T15:50:10;1.95;;;1.60;;
68921;SDS011;55959;51.244;5.724;2022-09-12T15:52:37;1.50;;;1.40;;
68921;SDS011;55959;51.244;5.724;2022-09-12T15:55:03;2.03;;;1.85;;
68921;SDS011;55959;51.244;5.724;2022-09-12T15:57:30;2.20;;;1.73;;
68921;SDS011;55959;51.244;5.724;2022-09-12T15:59:56;1.75;;;1.50;;
68921;SDS011;55959;51.244;5.724;2022-09-12T16:02:21;1.05;;;1.02;;
68921;SDS011;55959;51.244;5.724;2022-09-12T16:04:47;1.52;;;1.38;;
68921;SDS011;55959;51.244;5.724;2022-09-12T16:07:13;1.40;;;1.13;;
68921;SDS011;55959;51.244;5.724;2022-09-12T16:09:39;2.33;;;1.42;;
68921;SDS011;55959;51.244;5.724;2022-09-12T16:12:06;2.10;;;1.40;;
68921;SDS011;55959;51.244;5.724;2022-09-12T16:14:33;1.83;;;1.40;;
68921;SDS011;55959;51.244;5.724;2022-09-12T16:16:59;1.42;;;1.33;;
68921;SDS011;55959;51.244;5.724;2022-09-12T16:19:24;1.60;;;1.50;;
68921;SDS011;55959;51.244;5.724;2022-09-12T16:21:50;1.52;;;1.42;;
68921;SDS011;55959;51.244;5.724;2022-09-12T16:24:16;1.50;;;1.40;;
68921;SDS011;55959;51.244;5.724;2022-09-12T16:26:42;2.35;;;1.60;;
68921;SDS011;55959;51.244;5.724;2022-09-12T16:29:08;1.98;;;1.50;;
68921;SDS011;55959;51.244;5.724;2022-09-12T16:31:38;2.15;;;1.10;;
68921;SDS011;55959;51.244;5.724;2022-09-12T16:34:04;1.42;;;1.33;;
68921;SDS011;55959;51.244;5.724;2022-09-12T16:36:30;1.40;;;1.30;;
68921;SDS011;55959;51.244;5.724;2022-09-12T16:38:56;1.58;;;1.48;;
68921;SDS011;55959;51.244;5.724;2022-09-12T16:41:22;1.45;;;1.33;;
68921;SDS011;55959;51.244;5.724;2022-09-12T16:43:49;1.30;;;1.20;;
68921;SDS011;55959;51.244;5.724;2022-09-12T16:46:16;1.73;;;1.15;;
68921;SDS011;55959;51.244;5.724;2022-09-12T16:48:45;2.20;;;1.40;;
68921;SDS011;55959;51.244;5.724;2022-09-12T16:51:19;1.33;;;1.20;;
68921;SDS011;55959;51.244;5.724;2022-09-12T16:53:51;1.98;;;1.40;;
68921;SDS011;55959;51.244;5.724;2022-09-12T16:56:19;1.85;;;1.33;;
68921;SDS011;55959;51.244;5.724;2022-09-12T16:58:46;2.40;;;1.73;;
68921;SDS011;55959;51.244;5.724;2022-09-12T17:01:16;2.20;;;2.00;;
68921;SDS011;55959;51.244;5.724;2022-09-12T17:03:53;2.38;;;1.45;;
68921;SDS011;55959;51.244;5.724;2022-09-12T17:06:21;3.05;;;1.67;;
68921;SDS011;55959;51.244;5.724;2022-09-12T17:08:49;2.28;;;1.50;;
68921;SDS011;55959;51.244;5.724;2022-09-12T17:11:20;1.10;;;1.05;;
68921;SDS011;55959;51.244;5.724;2022-09-12T17:13:55;1.92;;;1.00;;
68921;SDS011;55959;51.244;5.724;2022-09-12T17:16:22;1.98;;;1.13;;
68921;SDS011;55959;51.244;5.724;2022-09-12T17:18:49;1.52;;;1.42;;
68921;SDS011;55959;51.244;5.724;2022-09-12T17:21:16;4.10;;;2.38;;
68921;SDS011;55959;51.244;5.724;2022-09-12T17:23:42;2.33;;;1.52;;
68921;SDS011;55959;51.244;5.724;2022-09-12T17:26:08;2.33;;;1.60;;
68921;SDS011;55959;51.244;5.724;2022-09-12T17:28:36;2.88;;;1.98;;
68921;SDS011;55959;51.244;5.724;2022-09-12T17:31:04;1.63;;;1.52;;
68921;SDS011;55959;51.244;5.724;2022-09-12T17:33:33;1.75;;;1.60;;
68921;SDS011;55959;51.244;5.724;2022-09-12T17:36:00;1.83;;;1.70;;
68921;SDS011;55959;51.244;5.724;2022-09-12T17:38:33;1.77;;;1.60;;
68921;SDS011;55959;51.244;5.724;2022-09-12T17:41:04;3.70;;;3.40;;
68921;SDS011;55959;51.244;5.724;2022-09-12T17:43:52;2.55;;;2.35;;
68921;SDS011;55959;51.244;5.724;2022-09-12T17:46:22;2.83;;;2.00;;
68921;SDS011;55959;51.244;5.724;2022-09-12T17:48:56;1.60;;;1.50;;
68921;SDS011;55959;51.244;5.724;2022-09-12T17:51:25;1.98;;;1.70;;
68921;SDS011;55959;51.244;5.724;2022-09-12T17:53:58;1.65;;;1.30;;
68921;SDS011;55959;51.244;5.724;2022-09-12T17:56:31;1.83;;;1.60;;
68921;SDS011;55959;51.244;5.724;2022-09-12T17:58:59;2.33;;;2.13;;